Amador City, California
Current Conditions -  °F | °C
As of 7:15 AM on Saturday 25 Oct 2014 (Local Time) from KPVF Reporting Station
Clear Clear  
Wind Chill: 13°   Ceiling: Unl
Heat Index: 13°   Visibility: 10mi
Dew Point:   Wind: 16mph
Humidity: 58%   Direction: 150°SSE
Pressure: 30"   Gusts: NA
Location:  38.42°N, 120.82°W
Report Text: KPVF 251415Z AUTO 15014KT 10SM CLR 13/05 A3000 RMK AO1
Loading
Personal Weather Stations






























Interactive Weather Map
Tropical Storm Tracking
New forecast layout! Learn more

10-Day Weather Forecast

Advertisements
Track Severe Weather on mobile